Time;durP1;ratioP1;P1;durP2;ratioP2;P2;SDS_P1;SDS_P2;PMS_P1;PMS_P2;Temp;Humidity;BMP_temperature;BMP_pressure;BME280_temperature;BME280_humidity;BME280_pressure;Samples;Min_cycle;Max_cycle;Signal;HPM_P1;HPM_P2
2022/09/20 00:00:41;;;;;;;12.68;3.80;;;;;;;9.47;100.00;102134.78;5063971;28;20067;-66
2022/09/20 00:03:08;;;;;;;13.77;4.18;;;;;;;9.44;100.00;102129.59;5044509;28;20043;-68
2022/09/20 00:05:35;;;;;;;20.50;4.03;;;;;;;9.55;100.00;102129.19;5055977;28;20056;-67
2022/09/20 00:08:02;;;;;;;12.82;3.90;;;;;;;9.42;100.00;102131.44;5061041;28;20043;-67
2022/09/20 00:10:29;;;;;;;14.48;4.05;;;;;;;9.36;100.00;102126.34;5043401;28;20439;-67
2022/09/20 00:12:55;;;;;;;17.25;4.22;;;;;;;9.31;100.00;102121.19;5063920;28;20064;-67
2022/09/20 00:15:21;;;;;;;11.07;3.38;;;;;;;9.25;100.00;102128.53;5061332;28;20040;-67
2022/09/20 00:17:46;;;;;;;21.40;3.72;;;;;;;9.23;100.00;102127.72;5061004;28;20047;-68
2022/09/20 00:20:12;;;;;;;14.98;4.82;;;;;;;9.22;100.00;102126.84;5061312;28;20041;-68
2022/09/20 00:22:38;;;;;;;17.35;4.30;;;;;;;9.22;100.00;102126.84;5061016;28;20040;-68
2022/09/20 00:25:03;;;;;;;11.65;4.05;;;;;;;9.16;100.00;102128.88;5055584;28;20037;-66
2022/09/20 00:27:29;;;;;;;15.20;4.68;;;;;;;9.11;100.00;102130.84;5061818;28;20047;-68
2022/09/20 00:29:55;;;;;;;13.85;4.93;;;;;;;9.10;100.00;102123.78;5062959;28;20040;-67
2022/09/20 00:32:20;;;;;;;21.33;4.80;;;;;;;9.16;100.00;102127.09;5062944;28;20033;-67
2022/09/20 00:37:30;;;;;;;12.32;5.20;;;;;;;9.25;100.00;102133.88;5058593;28;20071;-67
2022/09/20 00:39:55;;;;;;;8.25;3.72;;;;;;;9.27;100.00;102137.31;5054175;28;20048;-67
2022/09/20 00:42:27;;;;;;;12.32;4.75;;;;;;;9.27;100.00;102140.84;5051195;28;20106;-67
2022/09/20 00:44:52;;;;;;;15.55;6.30;;;;;;;9.31;100.00;102137.16;5061088;28;20050;-69
2022/09/20 00:47:35;;;;;;;22.42;6.30;;;;;;;9.41;100.00;102136.81;5061089;28;20040;-67
2022/09/20 00:50:19;;;;;;;16.10;5.82;;;;;;;9.45;100.00;102138.44;5060252;28;20048;-67
2022/09/20 00:52:47;;;;;;;18.65;8.10;;;;;;;9.52;100.00;102137.28;5059095;28;20477;-67
2022/09/20 00:55:14;;;;;;;30.50;7.50;;;;;;;9.50;100.00;102137.34;5061223;28;20040;-67
2022/09/20 00:57:41;;;;;;;26.45;9.65;;;;;;;9.57;100.00;102136.16;5042505;28;20048;-67
2022/09/20 01:00:10;;;;;;;21.17;9.23;;;;;;;9.53;100.00;102133.69;5062006;28;20795;-66
2022/09/20 01:02:40;;;;;;;26.80;10.02;;;;;;;9.58;100.00;102131.72;5060654;28;20573;-68
2022/09/20 01:05:08;;;;;;;26.13;10.55;;;;;;;9.57;100.00;102140.63;5061868;28;20119;-67
2022/09/20 01:07:34;;;;;;;24.65;10.38;;;;;;;9.60;100.00;102137.88;5062050;28;20051;-68
2022/09/20 01:09:59;;;;;;;25.25;10.10;;;;;;;9.49;100.00;102127.63;5061918;28;20332;-67
2022/09/20 01:12:31;;;;;;;19.40;9.63;;;;;;;9.50;100.00;102132.03;5041364;28;20036;-68
2022/09/20 01:14:59;;;;;;;24.70;9.55;;;;;;;9.41;100.00;102131.50;5061757;28;20040;-68
2022/09/20 01:17:28;;;;;;;22.10;9.40;;;;;;;9.47;100.00;102128.59;5061938;28;20047;-69
2022/09/20 01:20:07;;;;;;;18.65;8.98;;;;;;;9.53;100.00;102134.53;5060870;28;20621;-68
2022/09/20 01:22:55;;;;;;;26.52;10.07;;;;;;;9.59;100.00;102134.34;5057387;28;20059;-68
2022/09/20 01:25:44;;;;;;;21.85;8.82;;;;;;;9.57;100.00;102130.84;5055218;28;20396;-68
2022/09/20 01:28:09;;;;;;;19.80;9.00;;;;;;;9.69;100.00;102132.19;5060590;28;20116;-68
2022/09/20 01:30:44;;;;;;;25.40;8.73;;;;;;;9.71;100.00;102126.78;5061447;28;20716;-68
2022/09/20 01:33:18;;;;;;;19.10;8.65;;;;;;;9.67;100.00;102126.03;5055653;28;20079;-68
2022/09/20 01:35:48;;;;;;;19.23;9.10;;;;;;;9.60;100.00;102128.06;5055884;28;20037;-68
2022/09/20 01:38:53;;;;;;;18.60;8.48;;;;;;;9.66;100.00;102126.97;5061339;28;20036;-68
2022/09/20 01:41:51;;;;;;;32.38;9.35;;;;;;;9.54;100.00;102135.44;5017152;28;20076;-68
2022/09/20 01:44:38;;;;;;;20.05;8.68;;;;;;;9.63;100.00;102123.53;5048825;28;20059;-69
2022/09/20 01:47:22;;;;;;;16.83;7.90;;;;;;;9.54;100.00;102132.78;5053790;28;20036;-68
2022/09/20 01:50:13;;;;;;;21.27;7.05;;;;;;;9.55;100.00;102127.38;5061282;28;20045;-69
2022/09/20 01:52:54;;;;;;;26.45;7.95;;;;;;;9.53;100.00;102131.88;5062623;28;20135;-67
2022/09/20 01:55:58;;;;;;;19.58;7.53;;;;;;;9.56;100.00;102137.09;5055784;28;20036;-68
2022/09/20 01:58:44;;;;;;;17.25;6.70;;;;;;;9.62;100.00;102130.66;5055401;28;20127;-68
2022/09/20 02:01:40;;;;;;;17.42;7.20;;;;;;;9.42;100.00;102133.22;5058581;28;20079;-69
2022/09/20 02:04:09;;;;;;;20.25;8.23;;;;;;;9.53;100.00;102128.34;5064749;28;20036;-68
2022/09/20 02:06:58;;;;;;;19.35;6.53;;;;;;;9.52;100.00;102132.81;5060491;28;20045;-68
2022/09/20 02:09:33;;;;;;;20.50;7.60;;;;;;;9.41;100.00;102126.19;5039349;28;20048;-69
2022/09/20 02:12:17;;;;;;;26.75;8.32;;;;;;;9.45;100.00;102133.13;5054646;28;20097;-68
2022/09/20 02:14:51;;;;;;;14.52;8.32;;;;;;;9.60;100.00;102130.75;5060159;28;20056;-69
2022/09/20 02:17:31;;;;;;;17.85;7.80;;;;;;;9.47;100.00;102140.09;5047382;28;20044;-69
2022/09/20 02:20:19;;;;;;;23.77;10.00;;;;;;;9.35;100.00;102135.25;5064342;28;20412;-68
2022/09/20 02:23:00;;;;;;;21.25;7.60;;;;;;;9.38;100.00;102131.59;5056021;28;20059;-67
2022/09/20 02:25:45;;;;;;;19.88;8.18;;;;;;;9.45;100.00;102136.66;5058918;28;20051;-68
2022/09/20 02:28:32;;;;;;;23.83;8.00;;;;;;;9.54;100.00;102135.44;5039805;28;20050;-68
2022/09/20 02:31:20;;;;;;;22.00;7.72;;;;;;;9.69;100.00;102133.94;5057835;28;20040;-69
2022/09/20 02:34:04;;;;;;;17.02;7.60;;;;;;;9.66;100.00;102134.09;5059158;28;20447;-69
2022/09/20 02:36:40;;;;;;;21.77;7.30;;;;;;;9.74;100.00;102134.63;5064239;28;20415;-68
2022/09/20 02:39:20;;;;;;;23.38;6.55;;;;;;;9.85;100.00;102130.66;5063899;28;20043;-68
2022/09/20 02:42:16;;;;;;;16.02;6.43;;;;;;;9.90;100.00;102126.94;5045818;28;20090;-69
2022/09/20 02:45:07;;;;;;;15.70;5.95;;;;;;;9.89;100.00;102128.75;5064591;28;20072;-69
2022/09/20 02:47:38;;;;;;;16.27;6.43;;;;;;;9.82;100.00;102125.44;5036001;28;20472;-68
2022/09/20 02:50:33;;;;;;;16.88;7.28;;;;;;;9.88;100.00;102129.63;5064250;28;20028;-68
2022/09/20 02:53:19;;;;;;;20.38;6.60;;;;;;;9.84;100.00;102131.59;5064012;28;20698;-68
2022/09/20 02:55:53;;;;;;;13.80;4.78;;;;;;;9.89;100.00;102130.50;5064287;28;20405;-68
2022/09/20 02:58:50;;;;;;;16.55;5.50;;;;;;;9.95;100.00;102125.81;5059099;28;20067;-67
2022/09/20 03:01:39;;;;;;;21.23;5.65;;;;;;;9.92;100.00;102139.25;5053361;28;20055;-67
2022/09/20 03:04:35;;;;;;;14.65;5.82;;;;;;;9.98;100.00;102132.81;5042391;28;20036;-67
2022/09/20 03:07:19;;;;;;;15.57;5.15;;;;;;;9.99;100.00;102132.78;5061872;28;20553;-68
2022/09/20 03:10:20;;;;;;;22.15;6.32;;;;;;;10.02;100.00;102129.97;5056267;28;20039;-67
2022/09/20 03:12:59;;;;;;;13.32;4.80;;;;;;;10.04;100.00;102129.88;4999518;28;20049;-66
2022/09/20 03:15:59;;;;;;;13.45;3.90;;;;;;;10.13;100.00;102127.72;5001296;28;20048;-67
2022/09/20 03:18:49;;;;;;;10.88;3.78;;;;;;;10.10;100.00;102127.00;5001168;28;20042;-67
2022/09/20 03:21:32;;;;;;;13.35;3.78;;;;;;;10.09;100.00;102133.22;5000431;28;20046;-67
2022/09/20 03:24:35;;;;;;;9.38;3.67;;;;;;;10.06;100.00;102133.38;4999544;28;20092;-67
2022/09/20 03:27:15;;;;;;;7.93;3.15;;;;;;;10.15;100.00;102127.69;4984370;28;20552;-66
2022/09/20 03:30:05;;;;;;;12.10;3.15;;;;;;;10.22;100.00;102131.81;5000998;28;20104;-67
2022/09/20 03:32:49;;;;;;;7.35;2.45;;;;;;;10.18;100.00;102126.66;5000840;28;20041;-67
2022/09/20 03:35:39;;;;;;;16.38;3.55;;;;;;;10.24;100.00;102124.69;5000170;28;20847;-68
2022/09/20 03:38:13;;;;;;;10.00;3.13;;;;;;;10.25;100.00;102129.06;5000631;28;20052;-67
2022/09/20 03:41:03;;;;;;;8.50;2.97;;;;;;;10.23;100.00;102130.00;5001273;28;20045;-69
2022/09/20 03:43:55;;;;;;;10.88;3.00;;;;;;;10.21;100.00;102129.22;4994408;28;20069;-67
2022/09/20 03:46:44;;;;;;;12.13;3.60;;;;;;;10.25;100.00;102136.19;4970863;28;20080;-68
2022/09/20 03:49:34;;;;;;;14.90;3.35;;;;;;;10.25;100.00;102136.19;5031096;28;20051;-67
2022/09/20 03:52:35;;;;;;;12.32;3.35;;;;;;;10.29;100.00;102133.34;5055715;28;20036;-67
2022/09/20 03:55:25;;;;;;;13.55;3.55;;;;;;;10.30;100.00;102136.88;5054701;28;20109;-67
2022/09/20 03:57:55;;;;;;;10.70;3.80;;;;;;;10.27;100.00;102137.84;5061230;28;20120;-67
2022/09/20 04:00:37;;;;;;;8.77;4.18;;;;;;;10.28;100.00;102134.25;5057080;28;20514;-68
2022/09/20 04:03:31;;;;;;;20.83;4.07;;;;;;;10.21;100.00;102137.22;5058780;28;20080;-66
2022/09/20 04:06:16;;;;;;;10.45;4.57;;;;;;;10.26;100.00;102146.78;5043394;28;20055;-67
2022/09/20 04:09:00;;;;;;;14.55;4.00;;;;;;;10.28;100.00;102141.38;5056774;28;20048;-67
2022/09/20 04:11:44;;;;;;;16.00;5.22;;;;;;;10.28;100.00;102136.06;5062546;28;20040;-67
2022/09/20 04:14:33;;;;;;;13.85;3.95;;;;;;;10.24;100.00;102129.09;5058166;28;20060;-68
2022/09/20 04:17:44;;;;;;;10.93;3.75;;;;;;;10.27;100.00;102140.53;5059274;28;20051;-68
2022/09/20 04:20:22;;;;;;;16.98;5.18;;;;;;;10.27;100.00;102142.31;5018236;28;20192;-67
2022/09/20 04:22:53;;;;;;;12.13;3.65;;;;;;;10.24;100.00;102138.00;5013097;28;20053;-68
2022/09/20 04:25:26;;;;;;;11.95;5.40;;;;;;;10.28;100.00;102144.91;5004119;28;20544;-67
2022/09/20 04:28:00;;;;;;;16.77;4.60;;;;;;;10.24;100.00;102138.00;5018484;28;20048;-66
2022/09/20 04:30:29;;;;;;;14.05;4.13;;;;;;;10.27;100.00;102137.84;5003341;28;20061;-68
2022/09/20 04:33:13;;;;;;;8.00;4.32;;;;;;;10.24;100.00;102140.66;5018520;28;20045;-67
2022/09/20 04:39:00;;;;;;;;;;;;;;;10.05;100.00;102140.50;5018859;28;20048;-67
2022/09/20 04:42:00;;;;;;;16.25;4.57;;;;;;;9.92;100.00;102141.06;5016615;28;19917;-68
2022/09/20 04:44:37;;;;;;;21.65;4.35;;;;;;;9.86;100.00;102137.69;5015445;28;20037;-67
2022/09/20 04:47:21;;;;;;;19.08;4.75;;;;;;;9.77;100.00;102145.19;5015929;28;20034;-69
2022/09/20 04:50:09;;;;;;;29.85;5.00;;;;;;;9.74;100.00;102132.88;5018774;28;20049;-69
2022/09/20 04:53:20;;;;;;;14.00;5.07;;;;;;;9.68;100.00;102148.19;5017964;28;20037;-68
2022/09/20 04:55:51;;;;;;;15.60;4.82;;;;;;;9.53;100.00;102147.84;5043072;28;20052;-67
2022/09/20 04:58:34;;;;;;;16.05;4.40;;;;;;;9.42;100.00;102149.19;5060381;28;20699;-67
2022/09/20 05:01:15;;;;;;;16.02;4.65;;;;;;;9.46;100.00;102154.34;5061694;28;20056;-69
2022/09/20 05:04:11;;;;;;;14.27;4.82;;;;;;;9.45;100.00;102157.09;5042407;28;20615;-68
2022/09/20 05:06:57;;;;;;;10.52;4.38;;;;;;;9.49;100.00;102156.06;5038730;28;20579;-66
2022/09/20 05:10:00;;;;;;;16.15;5.28;;;;;;;9.43;100.00;102169.56;5047130;28;20044;-68
2022/09/20 05:12:47;;;;;;;14.93;5.32;;;;;;;9.46;100.00;102166.81;5061005;28;20040;-67
2022/09/20 05:15:22;;;;;;;13.50;4.95;;;;;;;9.51;100.00;102168.38;5035384;28;20090;-67
2022/09/20 05:18:00;;;;;;;10.15;4.90;;;;;;;9.51;100.00;102170.16;5060240;28;20037;-67
2022/09/20 05:20:43;;;;;;;20.98;6.15;;;;;;;9.53;100.00;102177.16;5062276;28;20045;-67
2022/09/20 05:23:27;;;;;;;17.15;5.78;;;;;;;9.50;100.00;102173.75;5024999;28;20050;-66
2022/09/20 05:26:29;;;;;;;13.77;5.10;;;;;;;9.60;100.00;102177.81;5037987;28;20307;-67
2022/09/20 05:29:23;;;;;;;22.58;5.55;;;;;;;9.68;100.00;102175.69;5040393;28;20039;-68
2022/09/20 05:31:55;;;;;;;12.38;5.32;;;;;;;9.60;100.00;102183.13;5061809;28;20033;-70
2022/09/20 05:34:32;;;;;;;17.60;4.93;;;;;;;9.60;100.00;102184.00;5061576;28;20157;-66
2022/09/20 05:37:15;;;;;;;21.58;5.35;;;;;;;9.76;100.00;102186.06;5061660;28;20051;-67
2022/09/20 05:39:43;;;;;;;18.10;4.80;;;;;;;9.83;100.00;102177.78;5055722;28;20045;-70
2022/09/20 05:42:33;;;;;;;14.52;5.78;;;;;;;9.73;100.00;102173.72;5058213;28;20032;-68
2022/09/20 05:45:01;;;;;;;17.90;4.97;;;;;;;9.76;100.00;102167.44;5057340;28;20040;-68
2022/09/20 05:47:37;;;;;;;15.52;6.45;;;;;;;9.90;100.00;102194.41;5060799;28;20036;-69
2022/09/20 05:50:19;;;;;;;15.57;6.00;;;;;;;9.93;100.00;102186.28;5061248;28;20177;-70
2022/09/20 05:53:12;;;;;;;15.07;4.88;;;;;;;10.08;100.00;102195.47;5056722;28;20117;-68
2022/09/20 05:56:11;;;;;;;15.35;5.18;;;;;;;10.21;100.00;102191.41;5057670;28;20028;-68
2022/09/20 05:58:57;;;;;;;13.15;5.13;;;;;;;10.35;100.00;102191.75;5058981;28;20036;-68
2022/09/20 06:01:25;;;;;;;14.30;4.88;;;;;;;10.42;100.00;102189.69;5057362;28;20049;-69
2022/09/20 06:04:04;;;;;;;13.77;4.22;;;;;;;10.50;100.00;102187.59;5060518;28;20024;-70
2022/09/20 06:06:57;;;;;;;17.52;5.00;;;;;;;10.47;100.00;102193.03;5059435;28;20047;-69
2022/09/20 06:09:28;;;;;;;;;;;;;;;10.50;100.00;102192.06;5058193;28;20036;-67
2022/09/20 06:12:04;;;;;;;12.05;4.57;;;;;;;10.50;100.00;102195.59;5059162;28;19916;-68
2022/09/20 06:15:03;;;;;;;14.93;4.50;;;;;;;10.51;100.00;102197.31;5060536;28;20158;-67
2022/09/20 06:17:37;;;;;;;16.85;5.03;;;;;;;10.61;100.00;102197.81;5036294;28;20101;-68
2022/09/20 06:20:30;;;;;;;15.20;4.30;;;;;;;10.50;100.00;102194.72;5050636;28;20054;-69
2022/09/20 06:22:58;;;;;;;15.77;5.55;;;;;;;10.62;100.00;102184.41;5057431;28;20064;-70
2022/09/20 06:25:30;;;;;;;12.73;4.57;;;;;;;10.67;100.00;102181.53;5037259;28;20049;-67
2022/09/20 06:28:20;;;;;;;27.02;5.50;;;;;;;10.82;100.00;102183.53;5052665;28;20123;-69
2022/09/20 06:30:51;;;;;;;23.65;6.43;;;;;;;10.96;100.00;102188.31;5051799;28;20068;-68
2022/09/20 06:33:19;;;;;;;21.90;5.18;;;;;;;11.19;100.00;102202.44;5058796;28;20423;-70
2022/09/20 06:41:25;;;;;;;14.18;4.78;;;;;;;11.48;100.00;102198.47;5059775;28;20072;-69
2022/09/20 06:41:54;;;;;;;12.50;5.53;;;;;;;12.16;100.00;102215.81;5055098;28;20044;-69
2022/09/20 06:44:20;;;;;;;15.15;4.80;;;;;;;12.56;100.00;102217.41;5062357;28;20047;-68
2022/09/20 06:46:46;;;;;;;8.70;4.60;;;;;;;12.51;100.00;102215.91;5062457;28;20090;-69
2022/09/20 06:49:11;;;;;;;14.52;4.38;;;;;;;12.74;100.00;102220.09;5059571;28;20063;-69
2022/09/20 06:51:38;;;;;;;18.35;5.55;;;;;;;12.70;100.00;102222.94;5044681;28;20147;-68
2022/09/20 06:54:09;;;;;;;12.57;4.40;;;;;;;12.66;100.00;102221.34;5061751;28;20561;-68
2022/09/20 06:56:35;;;;;;;10.05;4.28;;;;;;;12.67;100.00;102220.41;5062774;28;20552;-68
2022/09/20 06:59:01;;;;;;;13.43;3.95;;;;;;;12.92;100.00;102224.53;5058417;28;20048;-68
2022/09/20 07:01:27;;;;;;;8.40;4.20;;;;;;;13.04;100.00;102218.53;5060065;28;20044;-69
2022/09/20 07:03:52;;;;;;;18.08;4.95;;;;;;;12.97;100.00;102222.47;5062594;28;20036;-70
2022/09/20 07:06:18;;;;;;;14.10;4.30;;;;;;;13.02;100.00;102215.06;5062267;28;20054;-68
2022/09/20 07:08:45;;;;;;;19.80;5.30;;;;;;;13.21;100.00;102221.25;5059400;28;20032;-68
2022/09/20 07:11:14;;;;;;;9.82;3.42;;;;;;;13.07;100.00;102220.19;5062151;28;20132;-69
2022/09/20 07:13:40;;;;;;;10.68;3.22;;;;;;;13.33;100.00;102224.22;5039917;28;20070;-68
2022/09/20 07:16:07;;;;;;;6.82;3.17;;;;;;;13.10;100.00;102220.91;5047970;28;20036;-69
2022/09/20 07:18:33;;;;;;;13.38;3.85;;;;;;;13.10;100.00;102217.34;5060338;28;20036;-69
2022/09/20 07:20:59;;;;;;;11.88;3.63;;;;;;;13.36;100.00;102232.97;5059304;28;20037;-68
2022/09/20 07:23:26;;;;;;;13.02;2.90;;;;;;;13.23;100.00;102228.31;5060433;28;20029;-68
2022/09/20 07:25:52;;;;;;;10.10;3.20;;;;;;;13.25;100.00;102235.31;5061805;28;20801;-69
2022/09/20 07:28:21;;;;;;;7.18;3.45;;;;;;;12.80;100.00;102250.09;5053548;28;20033;-68
2022/09/20 07:30:46;;;;;;;6.40;2.67;;;;;;;12.70;100.00;102248.81;5062499;28;20083;-68
2022/09/20 07:33:18;;;;;;;7.60;2.10;;;;;;;12.48;100.00;102254.34;5056433;28;20064;-69
2022/09/20 07:35:45;;;;;;;8.43;2.30;;;;;;;12.21;100.00;102248.53;5032305;28;20040;-68
2022/09/20 07:38:11;;;;;;;5.57;2.50;;;;;;;12.31;100.00;102243.63;5056105;28;20143;-67
2022/09/20 07:40:36;;;;;;;8.32;2.55;;;;;;;12.32;100.00;102246.22;5061333;28;20041;-69
2022/09/20 07:43:01;;;;;;;10.75;2.78;;;;;;;12.68;100.00;102245.34;5039398;28;20092;-67
2022/09/20 07:45:27;;;;;;;7.80;2.45;;;;;;;12.84;100.00;102237.41;5035412;28;20045;-69
2022/09/20 07:47:53;;;;;;;7.80;2.60;;;;;;;12.84;100.00;102227.56;5059069;28;20114;-69
2022/09/20 07:50:19;;;;;;;9.02;2.90;;;;;;;12.99;100.00;102231.28;5044357;28;20040;-68
2022/09/20 07:52:44;;;;;;;7.25;2.53;;;;;;;12.93;100.00;102239.63;5058397;28;20055;-68
2022/09/20 07:55:10;;;;;;;10.32;2.58;;;;;;;12.97;100.00;102243.91;5060170;28;20048;-68
2022/09/20 07:57:36;;;;;;;13.38;3.10;;;;;;;13.03;100.00;102248.06;5059891;28;20036;-69
2022/09/20 08:00:07;;;;;;;12.93;2.90;;;;;;;12.98;100.00;102250.09;5061002;28;20047;-67
2022/09/20 08:02:37;;;;;;;9.75;2.70;;;;;;;13.20;100.00;102248.06;5035900;28;20137;-69
2022/09/20 08:05:03;;;;;;;6.50;2.95;;;;;;;13.06;100.00;102253.28;5057133;28;20041;-69
2022/09/20 08:07:29;;;;;;;8.90;3.15;;;;;;;13.12;100.00;102258.31;5056306;28;20059;-69
2022/09/20 08:09:54;;;;;;;12.82;3.33;;;;;;;13.26;100.00;102257.63;5061762;28;20063;-68
2022/09/20 08:12:20;;;;;;;8.07;2.83;;;;;;;13.40;100.00;102257.75;5060235;28;20028;-69
2022/09/20 08:14:46;;;;;;;10.82;4.03;;;;;;;13.40;100.00;102264.00;5055902;28;20033;-69
2022/09/20 08:17:11;;;;;;;9.93;3.17;;;;;;;13.52;100.00;102267.84;5051251;28;20036;-68
2022/09/20 08:19:38;;;;;;;9.75;3.22;;;;;;;13.66;100.00;102278.72;5061488;28;20039;-69
2022/09/20 08:22:05;;;;;;;9.30;3.15;;;;;;;13.70;100.00;102276.72;5043045;28;20036;-68
2022/09/20 08:24:31;;;;;;;10.05;3.08;;;;;;;13.99;100.00;102273.31;5061387;28;20064;-70
2022/09/20 08:26:57;;;;;;;7.38;2.97;;;;;;;14.15;100.00;102277.84;5060442;28;20082;-67
2022/09/20 08:29:22;;;;;;;10.85;2.83;;;;;;;14.18;100.00;102277.69;5057406;28;20052;-68
2022/09/20 08:31:47;;;;;;;10.70;2.95;;;;;;;14.34;100.00;102270.50;5058909;28;20481;-69
2022/09/20 08:34:14;;;;;;;9.43;3.28;;;;;;;14.56;100.00;102280.94;5060384;28;20036;-69
2022/09/20 08:36:45;;;;;;;8.50;3.47;;;;;;;14.65;100.00;102275.00;5057592;28;20045;-67
2022/09/20 08:39:11;;;;;;;8.15;3.35;;;;;;;14.28;100.00;102264.63;5052389;28;20055;-69
2022/09/20 08:41:43;;;;;;;4.68;1.95;;;;;;;14.23;100.00;102272.94;5017936;28;20650;-69
2022/09/20 08:44:23;;;;;;;4.88;2.28;;;;;;;14.53;100.00;102273.06;5060770;28;20042;-69
2022/09/20 08:46:54;;;;;;;4.95;2.25;;;;;;;15.13;95.74;102274.94;5059849;28;20072;-69
2022/09/20 08:49:26;;;;;;;6.43;1.85;;;;;;;15.94;95.19;102270.84;5042140;28;20040;-68
2022/09/20 08:51:53;;;;;;;7.43;1.92;;;;;;;16.36;93.48;102279.81;5060869;28;20064;-69
2022/09/20 08:54:21;;;;;;;6.88;1.60;;;;;;;15.78;91.12;102281.69;5061327;28;20513;-67
2022/09/20 08:56:49;;;;;;;6.75;1.17;;;;;;;15.96;91.38;102286.88;5051503;28;20052;-69
2022/09/20 08:59:18;;;;;;;3.70;1.45;;;;;;;15.47;90.51;102287.22;5032875;28;20040;-67
2022/09/20 09:01:49;;;;;;;6.57;2.00;;;;;;;15.60;93.72;102281.94;5055553;28;20056;-69
2022/09/20 09:04:22;;;;;;;9.20;1.60;;;;;;;15.16;96.43;102291.75;5059323;28;20075;-68
2022/09/20 09:06:51;;;;;;;9.43;2.22;;;;;;;15.34;94.12;102284.38;5054808;28;20471;-70
2022/09/20 09:09:24;;;;;;;4.43;1.50;;;;;;;15.49;91.18;102290.66;5055902;28;20124;-68
2022/09/20 09:11:52;;;;;;;6.72;1.70;;;;;;;16.14;89.60;102280.34;5052128;28;20105;-68
2022/09/20 09:17:10;;;;;;;5.38;1.30;;;;;;;16.13;89.86;102288.53;5053878;28;20169;-69
2022/09/20 09:20:21;;;;;;;4.15;1.60;;;;;;;15.80;88.75;102289.66;5053054;28;20086;-69
2022/09/20 09:22:56;;;;;;;5.47;1.50;;;;;;;15.96;91.14;102284.19;5049706;28;20052;-70
2022/09/20 09:25:33;;;;;;;3.53;0.98;;;;;;;15.71;88.23;102291.13;5054510;28;20041;-67
2022/09/20 09:28:05;;;;;;;6.75;1.10;;;;;;;15.70;85.91;102288.50;5052719;28;20028;-69
2022/09/20 09:30:36;;;;;;;3.33;1.10;;;;;;;15.82;85.58;102289.59;5058082;28;20067;-68
2022/09/20 09:33:16;;;;;;;5.60;1.00;;;;;;;15.69;88.62;102282.28;5060182;28;20037;-70
2022/09/20 09:35:42;;;;;;;4.25;1.08;;;;;;;15.76;83.53;102282.75;5056169;28;20084;-68
2022/09/20 09:38:17;;;;;;;5.65;1.42;;;;;;;15.73;83.90;102275.75;5057121;28;20066;-68
2022/09/20 09:41:24;;;;;;;2.58;0.90;;;;;;;15.96;86.50;102279.66;5057383;28;20396;-67
2022/09/20 09:44:06;;;;;;;4.45;1.00;;;;;;;15.63;86.08;102282.66;5060452;28;20044;-68
2022/09/20 09:46:33;;;;;;;2.75;0.90;;;;;;;16.27;83.35;102278.59;5056563;28;20485;-69
2022/09/20 09:49:22;;;;;;;6.03;1.25;;;;;;;16.00;84.31;102272.28;5061106;28;20397;-75
2022/09/20 09:52:14;;;;;;;2.47;1.05;;;;;;;16.44;80.06;102271.25;5058413;28;20177;-71
2022/09/20 09:54:46;;;;;;;3.13;0.80;;;;;;;16.47;80.28;102261.16;5054143;28;20053;-67
2022/09/20 09:57:21;;;;;;;4.10;0.70;;;;;;;16.52;79.79;102277.88;5060608;28;20394;-69
2022/09/20 10:00:18;;;;;;;4.95;1.30;;;;;;;16.93;78.27;102271.59;5058925;28;20521;-69
2022/09/20 10:03:08;;;;;;;4.20;0.93;;;;;;;17.14;74.44;102271.97;5048101;28;20128;-68
2022/09/20 10:05:58;;;;;;;5.75;1.33;;;;;;;16.95;79.61;102271.47;5040993;28;20327;-67
2022/09/20 10:08:34;;;;;;;3.78;1.23;;;;;;;17.08;73.46;102267.00;5057545;28;20063;-69
2022/09/20 10:11:13;;;;;;;5.43;1.63;;;;;;;17.09;78.04;102269.59;5056300;28;20123;-69
2022/09/20 10:13:45;;;;;;;3.42;1.10;;;;;;;17.16;76.69;102270.03;5061466;28;20044;-69
2022/09/20 10:16:30;;;;;;;4.83;1.03;;;;;;;17.34;78.85;102265.22;5061924;28;20039;-67
2022/09/20 10:19:08;;;;;;;4.43;0.88;;;;;;;17.33;76.26;102267.03;5056012;28;20481;-68
2022/09/20 10:21:40;;;;;;;7.20;1.48;;;;;;;17.48;75.69;102258.88;5058489;28;20051;-69
2022/09/20 10:24:21;;;;;;;2.75;0.77;;;;;;;17.35;71.38;102264.22;5061524;28;20045;-68
2022/09/20 10:27:01;;;;;;;3.50;0.88;;;;;;;17.96;70.14;102261.78;5061588;28;20040;-68
2022/09/20 10:29:58;;;;;;;7.07;1.75;;;;;;;17.76;75.38;102257.78;5054030;28;20098;-69
2022/09/20 10:32:48;;;;;;;5.65;1.42;;;;;;;17.70;73.28;102263.59;5056096;28;20036;-68
2022/09/20 10:35:26;;;;;;;12.07;1.20;;;;;;;17.12;74.54;102267.63;5036110;28;20524;-68
2022/09/20 10:38:04;;;;;;;1.95;1.00;;;;;;;17.08;73.55;102269.69;5050516;28;20037;-69
2022/09/20 10:43:47;;;;;;;3.15;1.00;;;;;;;16.90;75.19;102273.63;5056818;28;20404;-68
2022/09/20 10:46:33;;;;;;;6.82;1.15;;;;;;;17.24;75.33;102261.41;5039116;28;20036;-68
2022/09/20 10:49:10;;;;;;;5.07;1.20;;;;;;;17.46;75.05;102255.38;5019083;28;20048;-68
2022/09/20 10:51:59;;;;;;;4.45;1.10;;;;;;;17.67;71.73;102256.59;5058503;28;20036;-68
2022/09/20 10:54:50;;;;;;;5.82;1.25;;;;;;;18.40;73.48;102252.28;5059974;28;20032;-68
2022/09/20 10:57:50;;;;;;;3.55;0.90;;;;;;;18.70;69.16;102247.31;5054637;28;20032;-67
2022/09/20 11:00:46;;;;;;;3.33;0.80;;;;;;;17.64;68.36;102253.25;5031683;28;20117;-67
2022/09/20 11:03:23;;;;;;;6.95;0.95;;;;;;;17.18;71.79;102267.25;5057470;28;20037;-68
2022/09/20 11:06:05;;;;;;;3.03;0.70;;;;;;;16.89;71.25;102261.13;5035194;28;20040;-69
2022/09/20 11:08:37;;;;;;;5.78;1.13;;;;;;;16.53;78.27;102271.50;5057799;28;20033;-69
2022/09/20 11:11:18;;;;;;;5.28;1.15;;;;;;;16.45;74.41;102276.53;5059099;28;20040;-68
2022/09/20 11:13:58;;;;;;;7.65;1.75;;;;;;;16.44;74.87;102276.63;5059763;28;20043;-69
2022/09/20 11:16:47;;;;;;;1.70;0.95;;;;;;;16.48;78.16;102284.41;5058395;28;20060;-68
2022/09/20 11:19:22;;;;;;;7.05;1.50;;;;;;;16.44;71.93;102282.03;5056569;28;20115;-67
2022/09/20 11:22:08;;;;;;;3.90;0.95;;;;;;;16.44;70.44;102282.03;5059950;28;20075;-69
2022/09/20 11:24:41;;;;;;;5.47;0.90;;;;;;;16.91;69.57;102278.03;5053475;28;20033;-69
2022/09/20 11:27:24;;;;;;;2.33;0.80;;;;;;;16.75;72.37;102281.75;5056665;28;20032;-69
2022/09/20 11:29:59;;;;;;;5.28;1.45;;;;;;;16.57;72.53;102278.44;5034877;28;20060;-69
2022/09/20 11:32:50;;;;;;;2.72;0.85;;;;;;;16.47;74.18;102288.09;5041971;28;20136;-68
2022/09/20 11:35:37;;;;;;;4.25;0.90;;;;;;;16.24;75.25;102286.00;5042323;28;20037;-68
2022/09/20 11:38:02;;;;;;;2.80;1.08;;;;;;;15.87;77.23;102291.03;5036297;28;20037;-68
2022/09/20 11:40:34;;;;;;;6.18;0.95;;;;;;;15.67;79.02;102292.28;5058594;28;20594;-68
2022/09/20 11:43:03;;;;;;;7.70;1.73;;;;;;;15.43;79.46;102281.16;5056189;28;20606;-68
2022/09/20 11:45:29;;;;;;;5.88;1.13;;;;;;;15.40;80.66;102294.75;5040538;28;20028;-66
2022/09/20 11:48:06;;;;;;;7.47;1.55;;;;;;;16.19;79.47;102288.13;5058371;28;20147;-68
2022/09/20 11:50:37;;;;;;;6.63;1.27;;;;;;;16.69;78.95;102295.59;5059772;28;20559;-68
2022/09/20 11:53:13;;;;;;;2.70;0.77;;;;;;;16.81;73.51;102291.25;5057276;28;20041;-67
2022/09/20 11:55:45;;;;;;;6.32;1.20;;;;;;;16.90;71.16;102282.56;5051512;28;20910;-69
2022/09/20 11:58:15;;;;;;;8.85;1.10;;;;;;;17.23;72.00;102287.53;5053100;28;20077;-67
2022/09/20 12:00:43;;;;;;;4.68;1.25;;;;;;;17.19;71.07;102283.31;5059154;28;20064;-69
2022/09/20 12:03:48;;;;;;;6.78;1.15;;;;;;;17.47;70.19;102286.78;5055388;28;20041;-69
2022/09/20 12:06:28;;;;;;;7.47;1.10;;;;;;;17.64;68.14;102277.53;5054775;28;20143;-68
2022/09/20 12:08:57;;;;;;;6.18;1.50;;;;;;;18.22;66.97;102273.38;5054323;28;20135;-68
2022/09/20 12:11:34;;;;;;;4.72;1.52;;;;;;;18.52;66.88;102273.81;5040779;28;20120;-68
2022/09/20 12:14:04;;;;;;;8.82;1.30;;;;;;;18.35;62.93;102266.97;5052812;28;20870;-69
2022/09/20 12:16:43;;;;;;;2.30;1.00;;;;;;;19.07;64.46;102255.31;5053853;28;20495;-68
2022/09/20 12:19:33;;;;;;;4.60;1.20;;;;;;;18.00;62.38;102268.69;5055647;28;20797;-68